CLX6AS VABB-VOBL
Flight info
| Callsign | CLX6AS |
|---|---|
| Flight time | N/A |
| Altitude | 35000 |
| Route | OMKIS2B EPKOS Q9 RIKBU RIKBU7F |
| Aircraft | B744/H-SDE3FGHIM1M2RWXY/LB1 |
Departure
| Time | 2026-04-28 04:50 |
|---|---|
| Airport | Chhatrapati Shivaji Maharaj International Airport (VABB) |
Arrival
| Time | N/A |
|---|---|
| Airport | Kempegowda International Airport Bengaluru (VOBL) |
| Time | Latitude | Longitude | Altitude | Speed | Heading |
|---|---|---|---|---|---|
| 2026-04-28 04:07 | 19.09549 | 72.86805 | 41 ft | 0 kts | 319° |
| 2026-04-28 04:15 | 19.09544 | 72.86810 | 41 ft | 2 kts | 319° |
| 2026-04-28 04:15 | 19.09525 | 72.86827 | 41 ft | 2 kts | 317° |
| 2026-04-28 04:16 | 19.09516 | 72.86840 | 41 ft | 2 kts | 294° |
| 2026-04-28 04:16 | 19.09512 | 72.86855 | 41 ft | 2 kts | 275° |
| 2026-04-28 04:16 | 19.09512 | 72.86871 | 41 ft | 2 kts | 256° |
| 2026-04-28 04:16 | 19.09518 | 72.86885 | 41 ft | 2 kts | 237° |
| 2026-04-28 04:17 | 19.09523 | 72.86892 | 41 ft | 1 kts | 227° |
| 2026-04-28 04:17 | 19.09525 | 72.86894 | 41 ft | 0 kts | 228° |
| 2026-04-28 04:18 | 19.09549 | 72.86805 | 41 ft | 0 kts | 319° |
| 2026-04-28 04:28 | 19.09549 | 72.86806 | 41 ft | 0 kts | 319° |
| 2026-04-28 04:37 | 19.09543 | 72.86811 | 41 ft | 3 kts | 319° |
| 2026-04-28 04:38 | 19.09522 | 72.86830 | 41 ft | 3 kts | 319° |
| 2026-04-28 04:38 | 19.09514 | 72.86837 | 41 ft | 0 kts | 319° |
| 2026-04-28 04:43 | 19.09515 | 72.86836 | 41 ft | 0 kts | 319° |
| 2026-04-28 04:43 | 19.09517 | 72.86834 | 41 ft | 0 kts | 306° |
| 2026-04-28 04:43 | 19.09518 | 72.86826 | 41 ft | 1 kts | 253° |
| 2026-04-28 04:44 | 19.09499 | 72.86810 | 40 ft | 6 kts | 211° |
| 2026-04-28 04:44 | 19.09432 | 72.86768 | 39 ft | 15 kts | 213° |
| 2026-04-28 04:44 | 19.09343 | 72.86678 | 38 ft | 21 kts | 230° |
| 2026-04-28 04:44 | 19.09228 | 72.86543 | 36 ft | 28 kts | 226° |
| 2026-04-28 04:45 | 19.09137 | 72.86437 | 35 ft | 15 kts | 230° |
| 2026-04-28 04:45 | 19.09070 | 72.86353 | 35 ft | 14 kts | 231° |
| 2026-04-28 04:45 | 19.09034 | 72.86266 | 35 ft | 10 kts | 262° |
| 2026-04-28 04:45 | 19.09032 | 72.86200 | 35 ft | 8 kts | 268° |
| 2026-04-28 04:46 | 19.09031 | 72.86137 | 35 ft | 8 kts | 270° |
| 2026-04-28 04:46 | 19.09031 | 72.86072 | 35 ft | 9 kts | 270° |
| 2026-04-28 04:46 | 19.09031 | 72.86000 | 35 ft | 10 kts | 269° |
| 2026-04-28 04:46 | 19.09030 | 72.85905 | 33 ft | 15 kts | 269° |
| 2026-04-28 04:47 | 19.09026 | 72.85774 | 32 ft | 19 kts | 268° |
| 2026-04-28 04:47 | 19.09023 | 72.85616 | 31 ft | 23 kts | 269° |
| 2026-04-28 04:47 | 19.09023 | 72.85435 | 31 ft | 26 kts | 269° |
| 2026-04-28 04:47 | 19.09019 | 72.85235 | 29 ft | 17 kts | 270° |
| 2026-04-28 04:48 | 19.09012 | 72.85095 | 28 ft | 20 kts | 259° |
| 2026-04-28 04:48 | 19.08967 | 72.84937 | 26 ft | 24 kts | 255° |
| 2026-04-28 04:48 | 19.08889 | 72.84819 | 25 ft | 16 kts | 171° |
| 2026-04-28 04:48 | 19.08846 | 72.84920 | 25 ft | 17 kts | 89° |
| 2026-04-28 04:49 | 19.08848 | 72.85110 | 25 ft | 47 kts | 89° |
| 2026-04-28 04:49 | 19.08854 | 72.85719 | 30 ft | 113 kts | 88° |
| 2026-04-28 04:49 | 19.08860 | 72.86739 | 39 ft | 164 kts | 89° |
| 2026-04-28 04:49 | 19.08890 | 72.88052 | 384 ft | 186 kts | 88° |
| 2026-04-28 04:50 | 19.08927 | 72.89368 | 926 ft | 175 kts | 90° |
| 2026-04-28 04:50 | 19.08931 | 72.90717 | 1124 ft | 191 kts | 89° |
| 2026-04-28 04:50 | 19.08931 | 72.92179 | 1379 ft | 210 kts | 92° |
| 2026-04-28 04:50 | 19.08544 | 72.93700 | 1766 ft | 224 kts | 120° |
| 2026-04-28 04:51 | 19.07492 | 72.94979 | 2223 ft | 238 kts | 145° |
| 2026-04-28 04:51 | 19.05944 | 72.95731 | 2660 ft | 250 kts | 169° |
| 2026-04-28 04:51 | 19.04213 | 72.95942 | 3193 ft | 256 kts | 175° |
| 2026-04-28 04:51 | 19.02444 | 72.96219 | 3761 ft | 261 kts | 169° |
| 2026-04-28 04:52 | 19.00637 | 72.96574 | 4352 ft | 264 kts | 170° |
| 2026-04-28 04:52 | 18.98800 | 72.96926 | 4871 ft | 268 kts | 170° |
| 2026-04-28 04:52 | 18.96952 | 72.97284 | 5341 ft | 273 kts | 170° |
| 2026-04-28 04:52 | 18.95058 | 72.97651 | 5749 ft | 281 kts | 170° |
| 2026-04-28 04:53 | 18.93110 | 72.98029 | 6057 ft | 292 kts | 170° |
| 2026-04-28 04:53 | 18.91069 | 72.98430 | 6420 ft | 299 kts | 169° |
| 2026-04-28 04:53 | 18.89025 | 72.98825 | 6968 ft | 297 kts | 172° |
| 2026-04-28 04:53 | 18.86949 | 72.98933 | 7425 ft | 298 kts | 181° |
| 2026-04-28 04:54 | 18.84877 | 72.98910 | 7869 ft | 299 kts | 180° |
| 2026-04-28 04:54 | 18.82800 | 72.98908 | 8397 ft | 297 kts | 179° |
| 2026-04-28 04:54 | 18.80720 | 72.98904 | 8906 ft | 296 kts | 179° |